createdAt,value
2023-05-11T00:01:44.149Z,1.45
2023-05-11T00:05:53.141Z,1.70
2023-05-11T00:07:57.412Z,0.93
2023-05-11T00:09:58.985Z,1.33
2023-05-11T00:12:19.171Z,0.95
2023-05-11T00:16:27.327Z,0.95
2023-05-11T00:18:32.019Z,1.17
2023-05-11T00:20:37.497Z,0.88
2023-05-11T00:22:40.049Z,1.95
2023-05-11T00:24:44.506Z,1.30
2023-05-11T00:27:05.063Z,1.38
2023-05-11T00:29:11.189Z,1.95
2023-05-11T00:31:12.789Z,0.90
2023-05-11T00:33:15.219Z,1.25
2023-05-11T00:35:16.762Z,2.58
2023-05-11T00:37:18.660Z,1.40
2023-05-11T00:39:26.082Z,1.85
2023-05-11T00:41:27.724Z,1.30
2023-05-11T00:43:29.136Z,1.42
2023-05-11T00:45:30.595Z,2.03
2023-05-11T00:47:33.063Z,1.63
2023-05-11T00:49:36.136Z,1.48
2023-05-11T00:51:38.405Z,2.45
2023-05-11T00:53:42.629Z,1.73
2023-05-11T00:56:03.614Z,1.67
2023-05-11T00:58:07.763Z,1.45
2023-05-11T01:00:12.204Z,1.98
2023-05-11T01:02:16.811Z,1.15
2023-05-11T01:04:21.236Z,1.85
2023-05-11T01:06:27.791Z,1.55
2023-05-11T01:08:36.185Z,2.13
2023-05-11T01:11:13.290Z,1.70
2023-05-11T01:13:17.660Z,1.63
2023-05-11T01:15:27.559Z,1.73
2023-05-11T01:17:38.091Z,2.25
2023-05-11T01:20:02.565Z,1.75
2023-05-11T01:22:09.130Z,1.45
2023-05-11T01:24:23.008Z,1.50
2023-05-11T01:26:49.240Z,1.55
2023-05-11T01:29:03.509Z,2.00
2023-05-11T01:31:10.248Z,1.80
2023-05-11T01:35:16.901Z,2.33
2023-05-11T01:37:24.183Z,2.05
2023-05-11T01:39:32.718Z,1.73
2023-05-11T01:41:36.016Z,1.70
2023-05-11T01:43:38.474Z,1.20
2023-05-11T01:45:45.285Z,1.27
2023-05-11T01:47:48.865Z,1.73
2023-05-11T01:49:51.591Z,1.27
2023-05-11T01:51:53.629Z,1.60
2023-05-11T01:54:14.090Z,1.90
2023-05-11T01:56:35.259Z,2.13
2023-05-11T01:58:40.478Z,1.60
2023-05-11T02:01:03.236Z,2.08
2023-05-11T02:03:09.085Z,1.42
2023-05-11T02:05:19.694Z,1.27
2023-05-11T02:07:22.335Z,1.67
2023-05-11T02:09:24.598Z,2.05
2023-05-11T02:11:26.742Z,2.47
2023-05-11T02:13:31.335Z,1.67
2023-05-11T02:15:37.711Z,2.53
2023-05-11T02:17:40.447Z,2.50
2023-05-11T02:19:42.982Z,1.30
2023-05-11T02:21:48.097Z,1.90
2023-05-11T02:23:50.073Z,1.48
2023-05-11T02:25:54.769Z,1.67
2023-05-11T02:28:14.988Z,2.55
2023-05-11T02:30:16.593Z,1.13
2023-05-11T02:32:20.148Z,1.67
2023-05-11T02:34:23.612Z,1.70
2023-05-11T02:36:28.776Z,1.45
2023-05-11T02:38:31.388Z,1.35
2023-05-11T02:40:34.496Z,1.83
2023-05-11T02:42:38.210Z,2.00
2023-05-11T02:44:46.421Z,1.70
2023-05-11T02:46:48.831Z,2.60
2023-05-11T02:48:55.322Z,1.55
2023-05-11T02:51:01.199Z,1.55
2023-05-11T02:53:22.461Z,2.05
2023-05-11T02:55:24.452Z,2.92
2023-05-11T02:57:28.641Z,1.80
2023-05-11T02:59:30.765Z,1.58
2023-05-11T03:01:33.418Z,2.22
2023-05-11T03:03:41.195Z,1.33
2023-05-11T03:05:45.640Z,1.48
2023-05-11T03:07:49.783Z,1.30
2023-05-11T03:09:51.450Z,5.38
2023-05-11T03:11:52.896Z,2.38
2023-05-11T03:14:13.315Z,1.17
2023-05-11T03:16:21.041Z,1.38
2023-05-11T03:18:26.390Z,1.50
2023-05-11T03:20:28.006Z,1.77
2023-05-11T03:22:29.938Z,2.50
2023-05-11T03:24:31.641Z,2.03
2023-05-11T03:26:36.394Z,2.03
2023-05-11T03:28:41.418Z,1.20
2023-05-11T03:30:44.944Z,2.20
2023-05-11T03:32:46.431Z,1.77
2023-05-11T03:34:49.438Z,1.98
2023-05-11T03:36:51.209Z,3.63
2023-05-11T03:38:58.661Z,2.22
2023-05-11T03:41:02.842Z,1.65
2023-05-11T03:43:05.226Z,2.92
2023-05-11T03:45:10.127Z,1.35
2023-05-11T03:47:15.424Z,1.55
2023-05-11T03:49:19.590Z,2.10
2023-05-11T03:51:21.561Z,1.73
2023-05-11T03:53:23.254Z,2.25
2023-05-11T03:55:27.756Z,1.98
2023-05-11T03:57:32.354Z,1.52
2023-05-11T03:59:39.022Z,2.35
2023-05-11T04:01:40.777Z,2.17
2023-05-11T04:03:52.198Z,1.98
2023-05-11T04:06:12.492Z,1.65
2023-05-11T04:08:14.099Z,3.05
2023-05-11T04:10:18.764Z,2.67
2023-05-11T04:12:21.416Z,1.55
2023-05-11T04:14:25.876Z,1.52
2023-05-11T04:16:27.380Z,1.50
2023-05-11T04:18:29.462Z,2.10
2023-05-11T04:20:33.655Z,1.90
2023-05-11T04:22:37.857Z,2.10
2023-05-11T04:24:40.090Z,1.27
2023-05-11T04:26:53.890Z,1.88
2023-05-11T04:29:14.370Z,1.92
2023-05-11T04:31:16.531Z,1.50
2023-05-11T04:33:38.041Z,2.40
2023-05-11T04:35:41.488Z,2.00
2023-05-11T04:37:43.088Z,1.90
2023-05-11T04:42:07.656Z,1.95
2023-05-11T04:44:12.514Z,2.17
2023-05-11T04:46:15.639Z,2.30
2023-05-11T04:48:20.277Z,2.13
2023-05-11T04:50:22.934Z,2.20
2023-05-11T04:52:27.935Z,2.17
2023-05-11T04:54:32.252Z,1.40
2023-05-11T04:56:36.529Z,1.83
2023-05-11T04:58:38.065Z,2.47
2023-05-11T05:02:52.864Z,1.98
2023-05-11T05:04:54.381Z,1.95
2023-05-11T05:06:58.911Z,2.10
2023-05-11T05:09:00.433Z,2.08
2023-05-11T05:11:01.902Z,1.95
2023-05-11T05:13:03.346Z,1.80
2023-05-11T05:15:06.329Z,2.35
2023-05-11T05:17:08.118Z,2.28
2023-05-11T05:19:13.133Z,1.60
2023-05-11T05:21:14.712Z,2.00
2023-05-11T05:23:17.413Z,2.25
2023-05-11T05:25:19.669Z,1.47
2023-05-11T05:27:21.199Z,2.30
2023-05-11T05:29:25.544Z,1.90
2023-05-11T05:31:30.007Z,1.83
2023-05-11T05:33:34.372Z,1.83
2023-05-11T05:35:35.908Z,2.42
2023-05-11T05:37:37.691Z,2.30
2023-05-11T05:39:59.500Z,3.25
2023-05-11T05:42:04.172Z,2.17
2023-05-11T05:44:05.769Z,1.75
2023-05-11T05:46:08.104Z,2.00
2023-05-11T05:48:10.412Z,1.60
2023-05-11T05:50:12.092Z,2.00
2023-05-11T05:52:14.719Z,2.90
2023-05-11T05:54:17.528Z,2.78
2023-05-11T05:56:22.031Z,3.00
2023-05-11T05:58:26.406Z,2.13
2023-05-11T06:00:28.069Z,1.67
2023-05-11T06:02:31.703Z,3.03
2023-05-11T06:04:39.265Z,2.55
2023-05-11T06:06:42.323Z,2.10
2023-05-11T06:08:45.497Z,2.08
2023-05-11T06:10:46.928Z,2.47
2023-05-11T06:14:55.602Z,2.22
2023-05-11T06:16:57.102Z,2.85
2023-05-11T06:18:58.737Z,2.22
2023-05-11T06:21:03.844Z,1.90
2023-05-11T06:23:23.822Z,1.58
2023-05-11T06:25:28.042Z,2.00
2023-05-11T06:27:32.414Z,1.55
2023-05-11T06:29:34.154Z,1.73
2023-05-11T06:31:35.610Z,2.13
2023-05-11T06:33:39.783Z,2.03
2023-05-11T06:35:44.163Z,2.65
2023-05-11T06:38:04.085Z,2.38
2023-05-11T06:40:09.053Z,2.08
2023-05-11T06:42:10.495Z,1.52
2023-05-11T06:44:13.143Z,1.92
2023-05-11T06:46:18.501Z,2.30
2023-05-11T06:48:22.157Z,3.33
2023-05-11T06:50:27.744Z,2.42
2023-05-11T06:52:32.526Z,1.73
2023-05-11T06:54:34.069Z,1.60
2023-05-11T06:56:39.154Z,1.42
2023-05-11T06:58:41.902Z,2.45
2023-05-11T07:00:43.341Z,2.03
2023-05-11T07:02:45.082Z,2.40
2023-05-11T07:04:47.595Z,1.55
2023-05-11T07:06:52.230Z,1.85
2023-05-11T07:08:53.694Z,2.15
2023-05-11T07:10:58.277Z,2.00
2023-05-11T07:13:02.614Z,2.17
2023-05-11T07:15:22.885Z,2.22
2023-05-11T07:17:28.536Z,2.72
2023-05-11T07:19:30.250Z,1.60
2023-05-11T07:21:51.952Z,1.85
2023-05-11T07:23:54.113Z,1.88
2023-05-11T07:26:14.173Z,1.20
2023-05-11T07:28:33.768Z,1.75
2023-05-11T07:30:35.183Z,2.50
2023-05-11T07:32:42.419Z,1.45
2023-05-11T07:34:45.666Z,1.60
2023-05-11T07:36:54.422Z,1.80
2023-05-11T07:39:08.600Z,1.85
2023-05-11T07:41:21.094Z,2.15
2023-05-11T07:43:33.305Z,1.55
2023-05-11T07:45:45.341Z,1.50
2023-05-11T07:47:54.784Z,1.80
2023-05-11T07:50:04.152Z,1.52
2023-05-11T07:52:27.136Z,1.70
2023-05-11T07:54:36.633Z,2.00
2023-05-11T07:56:48.905Z,1.80
2023-05-11T07:59:00.181Z,1.40
2023-05-11T08:01:12.861Z,2.08
2023-05-11T08:03:23.163Z,2.38
2023-05-11T08:05:29.727Z,1.70
2023-05-11T08:07:41.233Z,2.40
2023-05-11T08:09:46.966Z,1.98
2023-05-11T08:11:49.621Z,1.70
2023-05-11T08:13:51.722Z,1.30
2023-05-11T08:15:55.989Z,1.67
2023-05-11T08:17:57.764Z,2.10
2023-05-11T08:20:02.957Z,2.15
2023-05-11T08:22:07.518Z,1.90
2023-05-11T08:24:12.105Z,2.55
2023-05-11T08:26:16.289Z,1.80
2023-05-11T08:28:21.143Z,1.60
2023-05-11T08:30:25.394Z,2.22
2023-05-11T08:32:30.499Z,1.95
2023-05-11T08:34:32.138Z,2.70
2023-05-11T08:36:36.956Z,2.75
2023-05-11T08:38:41.122Z,1.30
2023-05-11T08:40:48.262Z,2.10
2023-05-11T08:42:55.172Z,1.35
2023-05-11T08:44:58.220Z,2.85
2023-05-11T08:47:21.362Z,1.63
2023-05-11T08:49:30.138Z,1.30
2023-05-11T08:51:34.858Z,1.88
2023-05-11T08:53:39.229Z,2.33
2023-05-11T08:55:43.935Z,1.75
2023-05-11T08:57:48.943Z,1.38
2023-05-11T08:59:53.448Z,2.42
2023-05-11T09:01:56.134Z,2.20
2023-05-11T09:03:58.365Z,1.55
2023-05-11T09:06:00.138Z,1.33
2023-05-11T09:08:20.558Z,1.40
2023-05-11T09:10:40.437Z,2.05
2023-05-11T09:12:44.435Z,1.30
2023-05-11T09:14:48.782Z,1.75
2023-05-11T09:16:50.265Z,1.65
2023-05-11T09:18:53.018Z,2.13
2023-05-11T09:20:54.653Z,2.10
2023-05-11T09:22:59.413Z,1.55
2023-05-11T09:25:20.013Z,1.67
2023-05-11T09:27:24.703Z,1.80
2023-05-11T09:29:30.468Z,1.55
2023-05-11T09:31:38.247Z,2.97
2023-05-11T09:33:39.828Z,1.88
2023-05-11T09:35:42.691Z,2.35
2023-05-11T09:38:09.768Z,1.52
2023-05-11T09:40:25.811Z,1.75
2023-05-11T09:42:29.957Z,1.85
2023-05-11T09:44:34.284Z,2.35
2023-05-11T09:46:37.120Z,1.42
2023-05-11T09:49:01.160Z,2.22
2023-05-11T09:51:06.256Z,1.63
2023-05-11T09:53:54.232Z,1.63
2023-05-11T09:55:55.830Z,1.40
2023-05-11T09:58:00.424Z,1.98
2023-05-11T10:00:02.022Z,1.30
2023-05-11T10:02:26.330Z,0.93
2023-05-11T10:04:31.193Z,1.33
2023-05-11T10:06:43.279Z,1.23
2023-05-11T10:08:48.235Z,1.40
2023-05-11T10:10:49.865Z,2.38
2023-05-11T10:12:51.942Z,1.25
2023-05-11T10:15:01.068Z,1.20
2023-05-11T10:17:05.498Z,0.93
2023-05-11T10:19:10.275Z,0.98
2023-05-11T10:21:11.936Z,1.15
2023-05-11T10:23:16.509Z,1.15
2023-05-11T10:25:23.897Z,1.17
2023-05-11T10:27:25.845Z,1.10
2023-05-11T10:29:28.486Z,0.98
2023-05-11T10:31:33.514Z,1.00
2023-05-11T10:33:38.270Z,1.13
2023-05-11T10:35:39.855Z,1.00
2023-05-11T10:37:42.820Z,0.63
2023-05-11T10:39:49.958Z,1.10
2023-05-11T10:42:18.696Z,0.80
2023-05-11T10:44:44.904Z,0.57
2023-05-11T10:47:08.321Z,0.90
2023-05-11T10:49:44.276Z,0.20
2023-05-11T10:52:14.348Z,1.05
2023-05-11T10:54:45.256Z,0.50
2023-05-11T10:57:15.113Z,0.50
2023-05-11T10:59:37.045Z,0.47
2023-05-11T11:01:46.724Z,0.70
2023-05-11T11:04:10.202Z,0.90
2023-05-11T11:06:26.724Z,0.52
2023-05-11T11:08:30.366Z,0.80
2023-05-11T11:10:41.608Z,0.70
2023-05-11T11:13:01.381Z,0.73
2023-05-11T11:15:06.966Z,1.05
2023-05-11T11:17:32.136Z,0.60
2023-05-11T11:19:34.430Z,0.70
2023-05-11T11:21:39.326Z,0.70
2023-05-11T11:23:43.573Z,0.82
2023-05-11T11:25:52.084Z,1.42
2023-05-11T11:28:12.922Z,0.65
2023-05-11T11:30:21.073Z,1.20
2023-05-11T11:32:26.556Z,1.52
2023-05-11T11:34:47.286Z,0.90
2023-05-11T11:37:06.881Z,1.10
2023-05-11T11:39:08.515Z,1.75
2023-05-11T11:41:10.010Z,1.60
2023-05-11T11:43:12.549Z,1.20
2023-05-11T11:45:25.814Z,1.75
2023-05-11T11:48:05.598Z,1.05
2023-05-11T11:50:11.510Z,1.65
2023-05-11T11:52:28.265Z,0.70
2023-05-11T11:54:47.414Z,0.93
2023-05-11T11:56:49.144Z,1.00
2023-05-11T11:59:13.553Z,0.75
2023-05-11T12:01:16.106Z,1.23
2023-05-11T12:03:24.244Z,0.90
2023-05-11T12:05:26.560Z,1.00
2023-05-11T12:07:33.312Z,0.82
2023-05-11T12:09:36.870Z,0.80
2023-05-11T12:11:38.551Z,0.50
2023-05-11T12:13:42.734Z,0.68
2023-05-11T12:15:44.214Z,0.80
2023-05-11T12:17:48.529Z,0.65
2023-05-11T12:19:52.857Z,0.98
2023-05-11T12:22:14.375Z,0.77
2023-05-11T12:24:15.923Z,0.50
2023-05-11T12:26:19.753Z,0.70
2023-05-11T12:28:39.636Z,0.47
2023-05-11T12:30:54.478Z,0.80
2023-05-11T12:33:04.525Z,0.80
2023-05-11T12:35:06.375Z,0.77
2023-05-11T12:37:10.585Z,0.57
2023-05-11T12:39:40.604Z,1.10
2023-05-11T12:41:43.485Z,0.68
2023-05-11T12:43:47.674Z,0.70
2023-05-11T12:45:49.402Z,0.60
2023-05-11T12:47:54.316Z,0.95
2023-05-11T12:49:55.856Z,0.60
2023-05-11T12:52:01.008Z,1.08
2023-05-11T12:54:02.463Z,0.80
2023-05-11T12:56:04.834Z,0.70
2023-05-11T12:58:25.084Z,1.05
2023-05-11T13:00:26.702Z,0.90
2023-05-11T13:02:28.946Z,0.80
2023-05-11T13:04:33.348Z,1.02
2023-05-11T13:06:34.955Z,0.98
2023-05-11T13:08:37.587Z,0.68
2023-05-11T13:11:16.509Z,0.77
2023-05-11T13:13:27.563Z,0.70
2023-05-11T13:15:29.227Z,1.10
2023-05-11T13:17:34.450Z,1.00
2023-05-11T13:19:39.499Z,1.00
2023-05-11T13:21:59.654Z,1.10
2023-05-11T13:24:04.392Z,0.82
2023-05-11T13:26:05.922Z,1.15
2023-05-11T13:28:08.461Z,0.85
2023-05-11T13:30:10.302Z,0.88
2023-05-11T13:32:12.424Z,1.00
2023-05-11T13:34:13.965Z,1.50
2023-05-11T13:36:18.787Z,1.63
2023-05-11T13:38:20.278Z,0.85
2023-05-11T13:40:40.472Z,1.15
2023-05-11T13:42:43.322Z,0.40
2023-05-11T13:44:47.668Z,0.70
2023-05-11T13:46:49.206Z,0.73
2023-05-11T13:48:58.509Z,0.93
2023-05-11T13:51:09.278Z,0.60
2023-05-11T13:53:19.694Z,0.70
2023-05-11T13:55:32.496Z,0.50
2023-05-11T13:57:47.889Z,0.60
2023-05-11T13:59:56.773Z,1.73
2023-05-11T14:02:09.584Z,0.65
2023-05-11T14:04:15.763Z,0.60
2023-05-11T14:06:26.031Z,2.35
2023-05-11T14:08:33.931Z,0.60
2023-05-11T14:10:46.272Z,0.80
2023-05-11T14:12:56.658Z,0.80
2023-05-11T14:15:06.466Z,0.63
2023-05-11T14:17:16.007Z,0.70
2023-05-11T14:19:27.545Z,0.40
2023-05-11T14:21:41.050Z,0.60
2023-05-11T14:23:57.547Z,0.60
2023-05-11T14:26:06.843Z,0.70
2023-05-11T14:28:11.074Z,0.73
2023-05-11T14:30:15.704Z,0.75
2023-05-11T14:32:35.883Z,0.35
2023-05-11T14:34:37.486Z,0.47
2023-05-11T14:36:38.959Z,0.90
2023-05-11T14:38:40.571Z,0.50
2023-05-11T14:40:42.249Z,1.00
2023-05-11T14:42:43.719Z,0.60
2023-05-11T14:44:46.216Z,0.40
2023-05-11T14:46:47.689Z,1.00
2023-05-11T14:48:49.161Z,0.82
2023-05-11T14:50:50.648Z,0.63
2023-05-11T14:52:52.311Z,0.43
2023-05-11T14:54:53.868Z,0.50
2023-05-11T14:56:59.515Z,0.85
2023-05-11T14:59:20.045Z,0.73
2023-05-11T15:01:21.604Z,0.75
2023-05-11T15:03:24.975Z,0.52
2023-05-11T15:05:29.615Z,0.60
2023-05-11T15:07:34.146Z,0.95
2023-05-11T15:09:35.960Z,0.50
2023-05-11T15:11:40.694Z,0.50
2023-05-11T15:14:01.034Z,1.00
2023-05-11T15:16:05.645Z,0.73
2023-05-11T15:18:09.126Z,0.43
2023-05-11T15:20:11.060Z,0.70
2023-05-11T15:22:12.729Z,0.40
2023-05-11T15:24:14.208Z,0.73
2023-05-11T15:26:18.584Z,0.70
2023-05-11T15:28:23.655Z,0.73
2023-05-11T15:30:43.771Z,1.02
2023-05-11T15:32:45.710Z,2.00
2023-05-11T15:34:58.614Z,3.28
2023-05-11T15:37:03.888Z,6.95
2023-05-11T15:39:06.635Z,3.83
2023-05-11T15:41:10.731Z,2.22
2023-05-11T15:43:15.200Z,2.22
2023-05-11T15:47:21.897Z,1.83
2023-05-11T15:49:23.620Z,1.98
2023-05-11T15:51:25.077Z,3.13
2023-05-11T15:53:26.850Z,2.38
2023-05-11T15:55:28.393Z,3.72
2023-05-11T15:57:29.952Z,5.32
2023-05-11T15:59:32.636Z,5.68
2023-05-11T16:01:37.024Z,5.72
2023-05-11T16:03:38.816Z,4.13
2023-05-11T16:05:43.355Z,1.88
2023-05-11T16:07:47.630Z,1.48
2023-05-11T16:09:52.057Z,1.27
2023-05-11T16:11:53.491Z,6.97
2023-05-11T16:13:55.049Z,13.25
2023-05-11T16:15:56.704Z,15.18
2023-05-11T16:17:58.526Z,4.50
2023-05-11T16:20:04.562Z,2.97
2023-05-11T16:22:08.599Z,4.35
2023-05-11T16:24:10.133Z,4.47
2023-05-11T16:26:11.607Z,4.85
2023-05-11T16:28:17.790Z,3.17
2023-05-11T16:30:25.404Z,2.63
2023-05-11T16:32:28.791Z,0.93
2023-05-11T16:34:35.462Z,1.23
2023-05-11T16:36:37.921Z,0.80
2023-05-11T16:38:46.866Z,0.30
2023-05-11T16:40:58.349Z,0.50
2023-05-11T16:43:03.473Z,0.70
2023-05-11T16:45:05.277Z,0.47
2023-05-11T16:47:06.810Z,0.85
2023-05-11T16:49:10.722Z,0.20
2023-05-11T16:53:31.848Z,0.75
2023-05-11T16:55:36.456Z,0.40
2023-05-11T16:57:37.982Z,0.50
2023-05-11T16:59:40.487Z,0.35
2023-05-11T17:02:01.078Z,0.45
2023-05-11T17:04:02.893Z,0.32
2023-05-11T17:06:07.534Z,0.60
2023-05-11T17:08:13.387Z,0.40
2023-05-11T17:10:18.021Z,0.30
2023-05-11T17:12:19.742Z,0.80
2023-05-11T17:14:24.249Z,0.32
2023-05-11T17:16:25.780Z,0.45
2023-05-11T17:18:28.110Z,0.50
2023-05-11T17:20:32.463Z,0.65
2023-05-11T17:22:34.748Z,0.20
2023-05-11T17:24:39.702Z,0.30
2023-05-11T17:26:48.280Z,0.50
2023-05-11T17:28:50.155Z,0.10
2023-05-11T17:30:54.289Z,0.38
2023-05-11T17:33:15.091Z,0.40
2023-05-11T17:35:17.095Z,0.20
2023-05-11T17:37:31.280Z,0.30
2023-05-11T17:39:35.703Z,0.20
2023-05-11T17:41:37.788Z,0.30
2023-05-11T17:43:39.286Z,0.20
2023-05-11T17:45:40.817Z,0.35
2023-05-11T17:47:47.414Z,0.47
2023-05-11T17:49:51.675Z,0.43
2023-05-11T17:51:57.998Z,0.47
2023-05-11T17:54:02.262Z,0.20
2023-05-11T17:56:08.031Z,0.45
2023-05-11T17:58:28.217Z,0.30
2023-05-11T18:00:32.480Z,12.40
2023-05-11T18:02:35.387Z,0.40
2023-05-11T18:04:42.012Z,0.50
2023-05-11T18:06:43.483Z,0.30
2023-05-11T18:09:05.983Z,0.30
2023-05-11T18:11:10.068Z,0.28
2023-05-11T18:13:15.268Z,0.52
2023-05-11T18:15:18.650Z,0.30
2023-05-11T18:17:22.690Z,0.47
2023-05-11T18:19:24.139Z,0.30
2023-05-11T18:21:28.351Z,0.30
2023-05-11T18:23:32.972Z,0.17
2023-05-11T18:25:34.461Z,0.20
2023-05-11T18:27:36.070Z,0.20
2023-05-11T18:29:43.591Z,0.38
2023-05-11T18:31:49.439Z,0.20
2023-05-11T18:33:51.029Z,0.20
2023-05-11T18:35:55.405Z,0.38
2023-05-11T18:38:02.226Z,0.17
2023-05-11T18:40:07.671Z,0.20
2023-05-11T18:42:11.927Z,0.30
2023-05-11T18:44:15.713Z,0.28
2023-05-11T18:46:17.155Z,0.20
2023-05-11T18:48:20.293Z,0.52
2023-05-11T18:50:21.887Z,0.30
2023-05-11T18:52:29.777Z,0.60
2023-05-11T18:54:31.293Z,0.35
2023-05-11T18:56:32.710Z,0.40
2023-05-11T19:00:40.670Z,0.30
2023-05-11T19:04:44.350Z,0.40
2023-05-11T19:06:45.843Z,0.30
2023-05-11T19:08:49.290Z,0.40
2023-05-11T19:10:53.956Z,0.50
2023-05-11T19:12:55.857Z,0.32
2023-05-11T19:14:57.356Z,0.20
2023-05-11T19:17:02.344Z,0.43
2023-05-11T19:19:08.768Z,0.55
2023-05-11T19:21:10.563Z,0.50
2023-05-11T19:23:12.638Z,0.52
2023-05-11T19:25:14.363Z,0.65
2023-05-11T19:27:19.124Z,0.70
2023-05-11T19:29:24.033Z,0.65
2023-05-11T19:31:27.421Z,0.70
2023-05-11T19:33:29.175Z,0.98
2023-05-11T19:35:49.664Z,0.90
2023-05-11T19:37:51.072Z,0.98
2023-05-11T19:40:04.104Z,0.70
2023-05-11T19:42:18.016Z,0.88
2023-05-11T19:44:23.965Z,0.95
2023-05-11T19:46:25.516Z,0.90
2023-05-11T19:48:26.975Z,1.02
2023-05-11T19:50:28.571Z,1.00
2023-05-11T19:52:32.788Z,1.27
2023-05-11T19:54:37.135Z,1.10
2023-05-11T19:56:39.359Z,1.20
2023-05-11T19:58:43.542Z,0.98
2023-05-11T20:00:45.042Z,1.00
2023-05-11T20:02:46.900Z,1.00
2023-05-11T20:04:52.577Z,1.05
2023-05-11T20:06:56.632Z,0.80
2023-05-11T20:11:02.672Z,2.95
2023-05-11T20:13:05.582Z,1.00
2023-05-11T20:15:10.660Z,1.10
2023-05-11T20:17:14.721Z,0.93
2023-05-11T20:19:19.034Z,0.93
2023-05-11T20:21:20.534Z,0.95
2023-05-11T20:23:22.189Z,1.10
2023-05-11T20:25:23.655Z,0.85
2023-05-11T20:27:44.021Z,1.42
2023-05-11T20:29:48.103Z,1.23
2023-05-11T20:36:03.905Z,1.30
2023-05-11T20:38:08.419Z,1.60
2023-05-11T20:40:13.131Z,1.52
2023-05-11T20:42:17.289Z,1.20
2023-05-11T20:44:18.820Z,1.30
2023-05-11T20:46:20.722Z,1.17
2023-05-11T20:48:38.549Z,1.45
2023-05-11T20:50:51.711Z,1.42
2023-05-11T20:52:55.855Z,1.33
2023-05-11T20:54:59.899Z,1.35
2023-05-11T20:57:04.689Z,1.17
2023-05-11T21:01:29.503Z,1.20
2023-05-11T21:03:34.093Z,0.95
2023-05-11T21:05:54.288Z,1.00
2023-05-11T21:07:58.456Z,1.10
2023-05-11T21:10:01.658Z,1.02
2023-05-11T21:12:06.368Z,1.70
2023-05-11T21:14:10.446Z,1.40
2023-05-11T21:16:11.965Z,1.90
2023-05-11T21:18:13.542Z,2.22
2023-05-11T21:20:15.141Z,2.05
2023-05-11T21:24:23.394Z,2.08
2023-05-11T21:26:24.879Z,2.63
2023-05-11T21:28:29.493Z,2.40
2023-05-11T21:30:31.128Z,2.60
2023-05-11T21:32:32.675Z,1.90
2023-05-11T21:36:41.442Z,2.53
2023-05-11T21:38:42.963Z,1.98
2023-05-11T21:41:03.488Z,1.77
2023-05-11T21:43:09.746Z,2.95
2023-05-11T21:45:12.302Z,1.75
2023-05-11T21:47:14.053Z,2.03
2023-05-11T21:49:15.469Z,2.17
2023-05-11T21:51:35.793Z,1.58
2023-05-11T21:53:37.289Z,2.30
2023-05-11T21:55:38.853Z,1.70
2023-05-11T21:57:43.335Z,1.90
2023-05-11T21:59:49.500Z,1.75
2023-05-11T22:01:52.996Z,2.05
2023-05-11T22:04:00.616Z,2.10
2023-05-11T22:06:05.137Z,1.70
2023-05-11T22:10:35.529Z,1.40
2023-05-11T22:12:37.146Z,1.70
2023-05-11T22:14:38.803Z,1.30
2023-05-11T22:16:43.495Z,2.10
2023-05-11T22:18:48.091Z,1.77
2023-05-11T22:20:52.328Z,1.35
2023-05-11T22:24:58.440Z,1.50
2023-05-11T22:27:02.852Z,1.35
2023-05-11T22:29:05.662Z,1.35
2023-05-11T22:31:07.921Z,1.15
2023-05-11T22:33:12.065Z,1.50
2023-05-11T22:35:13.563Z,1.20
2023-05-11T22:37:33.976Z,1.30
2023-05-11T22:39:38.406Z,1.20
2023-05-11T22:41:42.502Z,1.50
2023-05-11T22:43:47.892Z,1.27
2023-05-11T22:45:49.479Z,1.27
2023-05-11T22:47:51.119Z,1.17
2023-05-11T22:49:52.542Z,1.15
2023-05-11T22:51:58.450Z,1.13
2023-05-11T22:54:03.436Z,1.27
2023-05-11T22:56:06.333Z,1.05
2023-05-11T22:58:10.353Z,1.30
2023-05-11T23:00:12.189Z,1.23
2023-05-11T23:02:19.837Z,1.42
2023-05-11T23:04:26.216Z,1.40
2023-05-11T23:06:30.793Z,1.13
2023-05-11T23:08:32.292Z,1.40
2023-05-11T23:10:33.729Z,1.30
2023-05-11T23:12:38.105Z,1.60
2023-05-11T23:14:43.682Z,1.23
2023-05-11T23:16:47.775Z,1.42
2023-05-11T23:18:52.222Z,1.30
2023-05-11T23:20:57.518Z,1.42
2023-05-11T23:22:59.009Z,1.83
2023-05-11T23:25:01.266Z,1.60
2023-05-11T23:27:04.392Z,1.35
2023-05-11T23:29:06.535Z,1.55
2023-05-11T23:31:29.363Z,2.15
2023-05-11T23:33:33.662Z,1.27
2023-05-11T23:35:35.203Z,1.52
2023-05-11T23:37:55.125Z,1.67
2023-05-11T23:39:58.307Z,2.28
2023-05-11T23:42:04.323Z,2.15
2023-05-11T23:44:06.910Z,1.60
2023-05-11T23:46:11.648Z,3.10
2023-05-11T23:48:16.108Z,1.67
2023-05-11T23:50:19.578Z,1.83
2023-05-11T23:52:24.211Z,1.80
2023-05-11T23:54:29.908Z,2.08
2023-05-11T23:56:31.375Z,2.00
2023-05-11T23:58:32.845Z,1.70
